Record high temperature 33.0°C Record low temperature 11.9°C Record high gust 62.7 km/h Record high average 43.1 km/h Record daily rain 157.7 mm Record low windchill 11.9°C Record high barometer 1020.9 hPa Record low barometer 1001.1 hPa
Daily high pressure 1008.1 hPa Daily low pressure 1008.0 hPa Daily low windchill 22.3°C Daily high heat index 22.3°C Daily high gust speed 6.4 kmh W Daily high average speed 4.9 kmh W
Stazione meteo Crema centro
LAST READING AT TIME: 00:10 DATE: 23 June 2024, time of next update: 00:15
Current WeatherNight time/Dry/Scattered clouds Current Temperature 22.3°C (72.1°F) (Heat Index 22.3°C ), Apparent temp 23.4°C
Maximum Temperature (since midnight)22.3°C at: 00:00 Minimum Temperature (since midnight)22.3°C at: 00:00
Average windspeed (ten minute)2.8 kmh (1.5 kts) Wind Direction (ten minute)W (270°)
Windchill Temperature 22.3°C Maximum Gust (last hour)11.3 kmh (6.1 kts) at: 23:10
Maximum Gust (since midnight)6.4 kmh (3.5 kts) at: 00:02 Maximum 1 minute average (since midnight)4.9 kmh (2.6 kts) at: 00:04
Rainfall (last hour)0.0 mm Rainfall (since midnight)0.0 mm (0.00 in.)---
Rainfall This month 59.7 mm (2.35 in.) Rainfall To date this year 1074.2 mm (42.29 in.)
Maximum rain per minute (last hour)0.0 mm/min Maximum rain per hour (last 6 hours)0.0 mm/hour
Yesterdays rainfall 0.0 mm DewPoint 14.4°C (Wet Bulb :17.6°C )
Humidity 61 %, Humidex 25.9°C Barometer corrected to msl1008.1 hPa
Pressure change -0.2 hPa (last hour) Trend (last hour)STEADY
Pressure change (last 12 hours)-2.7 hPa Pressure change (last 6 hours)+0.7 hPa
Current Solar 0 W/mē
Maximum solar (since midnight) 0 W/mē Minimum solar (since midnight)0 W/mē
Current 00:00 hours of sunshine today, current sky: Night time/Dry/Scattered clouds
Sunshine hours for the year: 265:15 hrs Sunshine hours for the month: 138:02 hrs
Current evapotranspiration rate 1.8 mm per day. Yesterday's reading 6.2

This page is updated from recent data collected by a DAVIS VANTAGE PRO weather station Use the Reload or Refresh facility on your browser to retrieve the latest data.

Status report of weather station: IK2CHZ - Crema meteo



Weather report/warning/Metars

Milano / Linate, Italy (LIML) 45-26N 009-17E 103M
Jun 22, 2024 - 05:50 PM EDT / 2024.06.22 2150 UTC
Wind: from the NNW (340 degrees) at 9 MPH (8 KT) (direction variable):0
Visibility: greater than 7 mile(s):0
Sky conditions: partly cloudy
Temperature: 69 F (21 C)
Dew Point: 50 F (10 C)
Relative Humidity: 49%
Pressure (altimeter): 29.77 in. Hg (1008 hPa)
ob: LIML 222150Z 34008KT 300V020 9999 SCT080 21/10 Q1008 NOSIG
cycle: 22
Bergamo / Orio Al Serio, Italy (LIME) 45-40N 009-42E 237M
Jun 22, 2024 - 05:50 PM EDT / 2024.06.22 2150 UTC
Wind: from the N (360 degrees) at 10 MPH (9 KT):0
Visibility: greater than 7 mile(s):0
Sky conditions: partly cloudy
Temperature: 68 F (20 C)
Dew Point: 60 F (16 C)
Relative Humidity: 77%
Pressure (altimeter): 29.77 in. Hg (1008 hPa)
ob: LIME 222150Z 36009KT 9999 FEW050 SCT080 20/16 Q1008 NOSIG
cycle: 22
Piacenza, Italy (LIMS) 44-55N 009-44E 138M
Jun 22, 2024 - 01:55 PM EDT / 2024.06.22 1755 UTC
Wind: from the W (260 degrees) at 7 MPH (6 KT):0
Visibility: greater than 7 mile(s):0
Sky conditions: partly cloudy
Temperature: 77 F (25 C)
Dew Point: 64 F (18 C)
Relative Humidity: 65%
Pressure (altimeter): 29.74 in. Hg (1007 hPa)
ob: LIMS 221755Z 26006KT 9999 SCT035 SCT060 25/18 Q1007
cycle: 18